sensor_id;sensor_type;location;lat;lon;timestamp;pressure;altitude;pressure_sealevel;temperature;humidity
47530;BME280;33272;51.922;7.730;2023-05-02T00:01:20;145648.31;;;12.69;100.00
47530;BME280;33272;51.922;7.730;2023-05-02T00:03:47;145647.03;;;12.69;100.00
47530;BME280;33272;51.922;7.730;2023-05-02T00:06:14;145644.50;;;12.68;100.00
47530;BME280;33272;51.922;7.730;2023-05-02T00:08:41;145639.41;;;12.66;100.00
47530;BME280;33272;51.922;7.730;2023-05-02T00:11:08;145628.00;;;12.61;100.00
47530;BME280;33272;51.922;7.730;2023-05-02T00:13:35;145622.91;;;12.59;100.00
47530;BME280;33272;51.922;7.730;2023-05-02T00:16:02;145611.47;;;12.55;100.00
47530;BME280;33272;51.922;7.730;2023-05-02T00:18:31;145591.19;;;12.46;100.00
47530;BME280;33272;51.922;7.730;2023-05-02T00:20:58;145582.31;;;12.43;100.00
47530;BME280;33272;51.922;7.730;2023-05-02T00:23:25;145574.69;;;12.40;100.00
47530;BME280;33272;51.922;7.730;2023-05-02T00:25:52;145560.72;;;12.34;100.00
47530;BME280;33272;51.922;7.730;2023-05-02T00:28:19;145563.25;;;12.35;100.00
47530;BME280;33272;51.922;7.730;2023-05-02T00:30:46;145539.13;;;12.25;100.00
47530;BME280;33272;51.922;7.730;2023-05-02T00:33:13;145535.34;;;12.24;100.00
47530;BME280;33272;51.922;7.730;2023-05-02T00:35:42;145525.16;;;12.20;100.00
47530;BME280;33272;51.922;7.730;2023-05-02T00:38:09;145511.22;;;12.14;100.00
47530;BME280;33272;51.922;7.730;2023-05-02T00:40:43;145497.25;;;12.09;100.00
47530;BME280;33272;51.922;7.730;2023-05-02T00:43:11;145493.44;;;12.07;100.00
47530;BME280;33272;51.922;7.730;2023-05-02T00:45:38;145476.94;;;12.00;100.00
47530;BME280;33272;51.922;7.730;2023-05-02T00:48:06;145492.16;;;12.06;100.00
47530;BME280;33272;51.922;7.730;2023-05-02T00:50:36;145480.78;;;12.02;100.00
47530;BME280;33272;51.922;7.730;2023-05-02T00:53:04;145471.91;;;11.98;100.00
47530;BME280;33272;51.922;7.730;2023-05-02T00:55:32;145468.06;;;11.97;100.00
47530;BME280;33272;51.922;7.730;2023-05-02T00:57:59;145461.72;;;11.94;100.00
47530;BME280;33272;51.922;7.730;2023-05-02T01:00:35;145451.56;;;11.90;100.00
47530;BME280;33272;51.922;7.730;2023-05-02T01:03:13;145441.44;;;11.86;100.00
47530;BME280;33272;51.922;7.730;2023-05-02T01:05:48;145432.50;;;11.82;100.00
47530;BME280;33272;51.922;7.730;2023-05-02T01:08:30;145431.22;;;11.82;100.00
47530;BME280;33272;51.922;7.730;2023-05-02T01:11:14;145413.47;;;11.75;100.00
47530;BME280;33272;51.922;7.730;2023-05-02T01:13:42;145424.91;;;11.79;100.00
47530;BME280;33272;51.922;7.730;2023-05-02T01:16:12;145419.81;;;11.77;100.00
47530;BME280;33272;51.922;7.730;2023-05-02T01:18:41;145412.19;;;11.74;100.00
47530;BME280;33272;51.922;7.730;2023-05-02T01:21:10;145414.72;;;11.75;100.00
47530;BME280;33272;51.922;7.730;2023-05-02T01:23:45;145409.69;;;11.73;100.00
47530;BME280;33272;51.922;7.730;2023-05-02T01:26:34;145394.44;;;11.67;100.00
47530;BME280;33272;51.922;7.730;2023-05-02T01:29:06;145386.84;;;11.64;100.00
47530;BME280;33272;51.922;7.730;2023-05-02T01:31:36;145381.75;;;11.62;100.00
47530;BME280;33272;51.922;7.730;2023-05-02T01:34:07;145377.97;;;11.60;100.00
47530;BME280;33272;51.922;7.730;2023-05-02T01:36:37;145355.13;;;11.51;100.00
47530;BME280;33272;51.922;7.730;2023-05-02T01:39:09;145356.38;;;11.52;100.00
47530;BME280;33272;51.922;7.730;2023-05-02T01:41:38;145353.88;;;11.51;100.00
47530;BME280;33272;51.922;7.730;2023-05-02T01:44:09;145355.13;;;11.51;100.00
47530;BME280;33272;51.922;7.730;2023-05-02T01:46:39;145342.44;;;11.46;100.00
47530;BME280;33272;51.922;7.730;2023-05-02T01:49:08;145338.63;;;11.45;100.00
47530;BME280;33272;51.922;7.730;2023-05-02T01:51:40;145334.81;;;11.43;100.00
47530;BME280;33272;51.922;7.730;2023-05-02T01:54:09;145317.06;;;11.36;100.00
47530;BME280;33272;51.922;7.730;2023-05-02T01:56:39;145328.47;;;11.41;100.00
47530;BME280;33272;51.922;7.730;2023-05-02T01:59:10;145322.16;;;11.38;100.00
47530;BME280;33272;51.922;7.730;2023-05-02T02:01:39;145320.84;;;11.37;100.00
47530;BME280;33272;51.922;7.730;2023-05-02T02:04:10;145318.31;;;11.36;100.00
47530;BME280;33272;51.922;7.730;2023-05-02T02:06:38;145324.69;;;11.39;100.00
47530;BME280;33272;51.922;7.730;2023-05-02T02:09:08;145322.16;;;11.38;100.00
47530;BME280;33272;51.922;7.730;2023-05-02T02:11:41;145329.72;;;11.41;100.00
47530;BME280;33272;51.922;7.730;2023-05-02T02:14:17;145319.59;;;11.37;100.00
47530;BME280;33272;51.922;7.730;2023-05-02T02:16:44;145339.91;;;11.45;100.00
47530;BME280;33272;51.922;7.730;2023-05-02T02:19:14;145329.72;;;11.41;100.00
47530;BME280;33272;51.922;7.730;2023-05-02T02:21:42;145325.94;;;11.40;100.00
47530;BME280;33272;51.922;7.730;2023-05-02T02:24:13;145331.03;;;11.42;100.00
47530;BME280;33272;51.922;7.730;2023-05-02T02:26:42;145333.56;;;11.43;100.00
47530;BME280;33272;51.922;7.730;2023-05-02T02:29:10;145329.72;;;11.41;100.00
47530;BME280;33272;51.922;7.730;2023-05-02T02:31:38;145337.34;;;11.44;100.00
47530;BME280;33272;51.922;7.730;2023-05-02T02:34:05;145338.63;;;11.45;100.00
47530;BME280;33272;51.922;7.730;2023-05-02T02:36:44;145339.91;;;11.45;100.00
47530;BME280;33272;51.922;7.730;2023-05-02T02:39:27;145292.97;;;11.26;100.00
47530;BME280;33272;51.922;7.730;2023-05-02T02:42:07;145318.31;;;11.36;100.00
47530;BME280;33272;51.922;7.730;2023-05-02T02:44:46;145323.41;;;11.39;100.00
47530;BME280;33272;51.922;7.730;2023-05-02T02:47:23;145319.59;;;11.37;100.00
47530;BME280;33272;51.922;7.730;2023-05-02T02:50:08;145310.72;;;11.33;100.00
47530;BME280;33272;51.922;7.730;2023-05-02T02:52:49;145319.59;;;11.37;100.00
47530;BME280;33272;51.922;7.730;2023-05-02T02:55:35;145311.97;;;11.34;100.00
47530;BME280;33272;51.922;7.730;2023-05-02T02:58:18;145332.28;;;11.42;100.00
47530;BME280;33272;51.922;7.730;2023-05-02T03:00:48;145342.44;;;11.46;100.00
47530;BME280;33272;51.922;7.730;2023-05-02T03:03:16;145342.44;;;11.46;100.00
47530;BME280;33272;51.922;7.730;2023-05-02T03:05:44;145347.50;;;11.48;100.00
47530;BME280;33272;51.922;7.730;2023-05-02T03:08:12;145348.78;;;11.49;100.00
47530;BME280;33272;51.922;7.730;2023-05-02T03:10:39;145338.63;;;11.45;100.00
47530;BME280;33272;51.922;7.730;2023-05-02T03:13:06;145355.13;;;11.51;100.00
47530;BME280;33272;51.922;7.730;2023-05-02T03:16:19;145346.25;;;11.48;100.00
47530;BME280;33272;51.922;7.730;2023-05-02T03:18:52;145355.13;;;11.51;100.00
47530;BME280;33272;51.922;7.730;2023-05-02T03:21:19;145360.16;;;11.53;100.00
47530;BME280;33272;51.922;7.730;2023-05-02T03:23:45;145355.13;;;11.51;100.00
47530;BME280;33272;51.922;7.730;2023-05-02T03:26:13;145364.00;;;11.55;100.00
47530;BME280;33272;51.922;7.730;2023-05-02T03:28:40;145353.88;;;11.51;100.00
47530;BME280;33272;51.922;7.730;2023-05-02T03:31:08;145351.28;;;11.50;100.00
47530;BME280;33272;51.922;7.730;2023-05-02T03:33:35;145364.00;;;11.55;100.00
47530;BME280;33272;51.922;7.730;2023-05-02T03:36:02;145355.13;;;11.51;100.00
47530;BME280;33272;51.922;7.730;2023-05-02T03:38:29;145343.69;;;11.47;100.00
47530;BME280;33272;51.922;7.730;2023-05-02T03:40:56;145344.94;;;11.47;100.00
47530;BME280;33272;51.922;7.730;2023-05-02T03:43:23;145348.78;;;11.49;100.00
47530;BME280;33272;51.922;7.730;2023-05-02T03:45:50;145338.63;;;11.45;100.00
47530;BME280;33272;51.922;7.730;2023-05-02T03:48:19;145339.91;;;11.45;100.00
47530;BME280;33272;51.922;7.730;2023-05-02T03:50:46;145351.28;;;11.50;100.00
47530;BME280;33272;51.922;7.730;2023-05-02T03:53:13;145364.00;;;11.55;100.00
47530;BME280;33272;51.922;7.730;2023-05-02T03:55:41;145337.34;;;11.44;100.00
47530;BME280;33272;51.922;7.730;2023-05-02T03:58:10;145346.25;;;11.48;100.00
47530;BME280;33272;51.922;7.730;2023-05-02T04:00:37;145360.16;;;11.53;100.00
47530;BME280;33272;51.922;7.730;2023-05-02T04:03:04;145346.25;;;11.48;100.00
47530;BME280;33272;51.922;7.730;2023-05-02T04:05:33;145341.16;;;11.46;100.00
47530;BME280;33272;51.922;7.730;2023-05-02T04:08:00;145346.25;;;11.48;100.00
47530;BME280;33272;51.922;7.730;2023-05-02T04:10:27;145338.63;;;11.45;100.00
47530;BME280;33272;51.922;7.730;2023-05-02T04:12:55;145342.44;;;11.46;100.00
47530;BME280;33272;51.922;7.730;2023-05-02T04:15:22;145347.50;;;11.48;100.00
47530;BME280;33272;51.922;7.730;2023-05-02T04:17:49;145343.69;;;11.47;100.00
47530;BME280;33272;51.922;7.730;2023-05-02T04:20:16;145346.25;;;11.48;100.00
47530;BME280;33272;51.922;7.730;2023-05-02T04:22:44;145347.50;;;11.48;100.00
47530;BME280;33272;51.922;7.730;2023-05-02T04:25:12;145357.66;;;11.52;100.00
47530;BME280;33272;51.922;7.730;2023-05-02T04:27:39;145361.47;;;11.54;100.00
47530;BME280;33272;51.922;7.730;2023-05-02T04:30:08;145360.16;;;11.53;100.00
47530;BME280;33272;51.922;7.730;2023-05-02T04:32:35;145337.34;;;11.44;100.00
47530;BME280;33272;51.922;7.730;2023-05-02T04:35:03;145305.63;;;11.31;100.00
47530;BME280;33272;51.922;7.730;2023-05-02T04:37:30;145315.81;;;11.35;100.00
47530;BME280;33272;51.922;7.730;2023-05-02T04:39:59;145308.19;;;11.32;100.00
47530;BME280;33272;51.922;7.730;2023-05-02T04:42:26;145315.81;;;11.35;100.00
47530;BME280;33272;51.922;7.730;2023-05-02T04:44:53;145317.06;;;11.36;100.00
47530;BME280;33272;51.922;7.730;2023-05-02T04:47:19;145320.84;;;11.37;100.00
47530;BME280;33272;51.922;7.730;2023-05-02T04:49:47;145336.06;;;11.44;100.00
47530;BME280;33272;51.922;7.730;2023-05-02T04:52:14;145323.41;;;11.39;100.00
47530;BME280;33272;51.922;7.730;2023-05-02T04:54:41;145341.16;;;11.46;100.00
47530;BME280;33272;51.922;7.730;2023-05-02T04:57:09;145346.25;;;11.48;100.00
47530;BME280;33272;51.922;7.730;2023-05-02T04:59:36;145323.41;;;11.39;100.00
47530;BME280;33272;51.922;7.730;2023-05-02T05:02:03;145294.25;;;11.27;100.00
47530;BME280;33272;51.922;7.730;2023-05-02T05:04:30;145247.31;;;11.08;100.00
47530;BME280;33272;51.922;7.730;2023-05-02T05:06:57;145214.38;;;10.95;100.00
47530;BME280;33272;51.922;7.730;2023-05-02T05:09:24;145188.97;;;10.84;100.00
47530;BME280;33272;51.922;7.730;2023-05-02T05:11:51;145177.59;;;10.80;100.00
47530;BME280;33272;51.922;7.730;2023-05-02T05:14:19;145167.47;;;10.76;100.00
47530;BME280;33272;51.922;7.730;2023-05-02T05:16:47;145151.00;;;10.69;100.00
47530;BME280;33272;51.922;7.730;2023-05-02T05:19:14;145143.38;;;10.66;100.00
47530;BME280;33272;51.922;7.730;2023-05-02T05:21:40;145159.84;;;10.73;100.00
47530;BME280;33272;51.922;7.730;2023-05-02T05:24:07;145157.28;;;10.72;100.00
47530;BME280;33272;51.922;7.730;2023-05-02T05:26:34;145185.19;;;10.83;100.00
47530;BME280;33272;51.922;7.730;2023-05-02T05:29:01;145178.84;;;10.80;100.00
47530;BME280;33272;51.922;7.730;2023-05-02T05:31:30;145209.28;;;10.93;100.00
47530;BME280;33272;51.922;7.730;2023-05-02T05:33:57;145215.63;;;10.95;100.00
47530;BME280;33272;51.922;7.730;2023-05-02T05:36:24;145235.88;;;11.03;100.00
47530;BME280;33272;51.922;7.730;2023-05-02T05:38:51;145244.81;;;11.07;100.00
47530;BME280;33272;51.922;7.730;2023-05-02T05:41:18;145257.44;;;11.12;100.00
47530;BME280;33272;51.922;7.730;2023-05-02T05:43:45;145279.03;;;11.21;100.00
47530;BME280;33272;51.922;7.730;2023-05-02T05:46:12;145296.75;;;11.28;100.00
47530;BME280;33272;51.922;7.730;2023-05-02T05:48:41;145310.72;;;11.33;100.00
47530;BME280;33272;51.922;7.730;2023-05-02T05:51:07;145322.16;;;11.38;100.00
47530;BME280;33272;51.922;7.730;2023-05-02T05:53:34;145323.41;;;11.39;100.00
47530;BME280;33272;51.922;7.730;2023-05-02T05:56:08;145343.69;;;11.47;100.00
47530;BME280;33272;51.922;7.730;2023-05-02T05:58:35;145355.13;;;11.51;100.00
47530;BME280;33272;51.922;7.730;2023-05-02T06:01:02;145355.13;;;11.51;100.00
47530;BME280;33272;51.922;7.730;2023-05-02T06:03:30;145361.47;;;11.54;100.00
47530;BME280;33272;51.922;7.730;2023-05-02T06:05:58;145353.88;;;11.51;100.00
47530;BME280;33272;51.922;7.730;2023-05-02T06:08:25;145338.63;;;11.45;100.00
47530;BME280;33272;51.922;7.730;2023-05-02T06:10:52;145319.59;;;11.37;100.00
47530;BME280;33272;51.922;7.730;2023-05-02T06:13:19;145324.69;;;11.39;100.00
47530;BME280;33272;51.922;7.730;2023-05-02T06:15:46;145327.19;;;11.40;100.00
47530;BME280;33272;51.922;7.730;2023-05-02T06:18:13;145287.88;;;11.24;100.00
47530;BME280;33272;51.922;7.730;2023-05-02T06:20:40;145303.09;;;11.30;100.00
47530;BME280;33272;51.922;7.730;2023-05-02T06:23:09;145291.72;;;11.26;100.00
47530;BME280;33272;51.922;7.730;2023-05-02T06:25:38;145246.06;;;11.07;100.00
47530;BME280;33272;51.922;7.730;2023-05-02T06:28:05;145202.94;;;10.90;100.00
47530;BME280;33272;51.922;7.730;2023-05-02T06:30:34;145176.31;;;10.79;100.00
47530;BME280;33272;51.922;7.730;2023-05-02T06:33:03;145164.88;;;10.75;100.00
47530;BME280;33272;51.922;7.730;2023-05-02T06:35:30;145144.63;;;10.66;100.00
47530;BME280;33272;51.922;7.730;2023-05-02T06:37:57;145129.44;;;10.60;100.00
47530;BME280;33272;51.922;7.730;2023-05-02T06:40:25;145106.59;;;10.51;100.00
47530;BME280;33272;51.922;7.730;2023-05-02T06:42:53;145076.19;;;10.39;100.00
47530;BME280;33272;51.922;7.730;2023-05-02T06:45:20;145047.03;;;10.27;100.00
47530;BME280;33272;51.922;7.730;2023-05-02T06:47:47;145028.00;;;10.19;100.00
47530;BME280;33272;51.922;7.730;2023-05-02T06:50:15;144986.22;;;10.03;100.00
47530;BME280;33272;51.922;7.730;2023-05-02T06:52:42;144960.84;;;9.92;100.00
47530;BME280;33272;51.922;7.730;2023-05-02T06:55:09;144949.47;;;9.88;100.00
47530;BME280;33272;51.922;7.730;2023-05-02T06:57:37;144950.72;;;9.88;100.00
47530;BME280;33272;51.922;7.730;2023-05-02T07:00:06;144945.63;;;9.86;100.00
47530;BME280;33272;51.922;7.730;2023-05-02T07:02:33;144926.66;;;9.79;100.00
47530;BME280;33272;51.922;7.730;2023-05-02T07:05:00;144924.13;;;9.78;100.00
47530;BME280;33272;51.922;7.730;2023-05-02T07:07:27;144920.31;;;9.76;100.00
47530;BME280;33272;51.922;7.730;2023-05-02T07:09:54;144925.41;;;9.78;100.00
47530;BME280;33272;51.922;7.730;2023-05-02T07:12:21;144936.78;;;9.83;100.00
47530;BME280;33272;51.922;7.730;2023-05-02T07:14:50;144969.69;;;9.96;100.00
47530;BME280;33272;51.922;7.730;2023-05-02T07:17:17;144989.97;;;10.04;100.00
47530;BME280;33272;51.922;7.730;2023-05-02T07:19:44;145011.53;;;10.13;100.00
47530;BME280;33272;51.922;7.730;2023-05-02T07:22:11;145025.47;;;10.18;100.00
47530;BME280;33272;51.922;7.730;2023-05-02T07:24:40;145022.91;;;10.17;100.00
47530;BME280;33272;51.922;7.730;2023-05-02T07:27:07;145041.94;;;10.25;100.00
47530;BME280;33272;51.922;7.730;2023-05-02T07:29:35;145048.34;;;10.28;100.00
47530;BME280;33272;51.922;7.730;2023-05-02T07:32:04;145048.34;;;10.28;100.00
47530;BME280;33272;51.922;7.730;2023-05-02T07:34:31;145025.47;;;10.18;100.00
47530;BME280;33272;51.922;7.730;2023-05-02T07:36:58;145012.78;;;10.13;100.00
47530;BME280;33272;51.922;7.730;2023-05-02T07:39:25;145010.28;;;10.12;100.00
47530;BME280;33272;51.922;7.730;2023-05-02T07:41:53;145011.53;;;10.13;100.00
47530;BME280;33272;51.922;7.730;2023-05-02T07:44:20;144986.22;;;10.03;100.00
47530;BME280;33272;51.922;7.730;2023-05-02T07:46:47;144982.38;;;10.01;100.00
47530;BME280;33272;51.922;7.730;2023-05-02T07:49:16;144976.03;;;9.98;100.00
47530;BME280;33272;51.922;7.730;2023-05-02T07:51:43;144977.28;;;9.99;100.00
47530;BME280;33272;51.922;7.730;2023-05-02T07:54:20;144964.66;;;9.94;100.00
47530;BME280;33272;51.922;7.730;2023-05-02T07:56:48;144965.91;;;9.94;100.00
47530;BME280;33272;51.922;7.730;2023-05-02T07:59:15;144964.66;;;9.94;100.00
47530;BME280;33272;51.922;7.730;2023-05-02T08:01:43;144931.72;;;9.81;100.00
47530;BME280;33272;51.922;7.730;2023-05-02T08:04:09;144921.56;;;9.77;100.00
47530;BME280;33272;51.922;7.730;2023-05-02T08:06:38;144926.66;;;9.79;100.00
47530;BME280;33272;51.922;7.730;2023-05-02T08:09:06;144958.31;;;9.91;100.00
47530;BME280;33272;51.922;7.730;2023-05-02T08:11:34;144996.31;;;10.07;100.00
47530;BME280;33272;51.922;7.730;2023-05-02T08:14:01;145041.94;;;10.25;100.00
47530;BME280;33272;51.922;7.730;2023-05-02T08:16:28;145100.25;;;10.49;100.00
47530;BME280;33272;51.922;7.730;2023-05-02T08:18:55;145162.38;;;10.74;100.00
47530;BME280;33272;51.922;7.730;2023-05-02T08:21:22;145223.22;;;10.98;100.00
47530;BME280;33272;51.922;7.730;2023-05-02T08:23:50;145275.22;;;11.19;100.00
47530;BME280;33272;51.922;7.730;2023-05-02T08:26:17;145266.31;;;11.16;100.00
47530;BME280;33272;51.922;7.730;2023-05-02T08:28:46;145314.56;;;11.35;100.00
47530;BME280;33272;51.922;7.730;2023-05-02T08:31:13;145327.19;;;11.40;100.00
47530;BME280;33272;51.922;7.730;2023-05-02T08:33:40;145394.44;;;11.67;100.00
47530;BME280;33272;51.922;7.730;2023-05-02T08:36:11;145442.69;;;11.87;100.00
47530;BME280;33272;51.922;7.730;2023-05-02T08:38:38;145489.66;;;12.05;100.00
47530;BME280;33272;51.922;7.730;2023-05-02T08:41:10;145501.03;;;12.10;100.00
47530;BME280;33272;51.922;7.730;2023-05-02T08:43:39;145478.19;;;12.01;100.00
47530;BME280;33272;51.922;7.730;2023-05-02T08:46:07;145470.59;;;11.98;100.00
47530;BME280;33272;51.922;7.730;2023-05-02T08:48:35;145470.59;;;11.98;100.00
47530;BME280;33272;51.922;7.730;2023-05-02T08:51:03;145452.84;;;11.91;100.00
47530;BME280;33272;51.922;7.730;2023-05-02T08:53:35;145489.66;;;12.05;100.00
47530;BME280;33272;51.922;7.730;2023-05-02T08:56:04;145515.00;;;12.16;100.00
47530;BME280;33272;51.922;7.730;2023-05-02T08:58:34;145535.34;;;12.24;100.00
47530;BME280;33272;51.922;7.730;2023-05-02T09:01:14;145490.91;;;12.06;100.00
47530;BME280;33272;51.922;7.730;2023-05-02T09:03:43;145572.13;;;12.39;100.00
47530;BME280;33272;51.922;7.730;2023-05-02T09:06:12;145607.69;;;12.53;100.00
47530;BME280;33272;51.922;7.730;2023-05-02T09:08:42;145662.28;;;12.75;100.00
47530;BME280;33272;51.922;7.730;2023-05-02T09:11:11;145710.53;;;12.94;100.00
47530;BME280;33272;51.922;7.730;2023-05-02T09:13:41;145730.84;;;13.03;100.00
47530;BME280;33272;51.922;7.730;2023-05-02T09:16:10;145720.66;;;12.98;100.00
47530;BME280;33272;51.922;7.730;2023-05-02T09:18:39;145702.91;;;12.91;100.00
47530;BME280;33272;51.922;7.730;2023-05-02T09:21:09;145700.38;;;12.90;100.00
47530;BME280;33272;51.922;7.730;2023-05-02T09:23:39;145649.56;;;12.70;100.00
47530;BME280;33272;51.922;7.730;2023-05-02T09:26:15;145653.41;;;12.71;100.00
47530;BME280;33272;51.922;7.730;2023-05-02T09:28:45;145636.91;;;12.65;100.00
47530;BME280;33272;51.922;7.730;2023-05-02T09:31:15;145619.09;;;12.58;100.00
47530;BME280;33272;51.922;7.730;2023-05-02T09:33:43;145606.41;;;12.52;100.00
47530;BME280;33272;51.922;7.730;2023-05-02T09:36:13;145611.47;;;12.55;100.00
47530;BME280;33272;51.922;7.730;2023-05-02T09:38:40;145636.91;;;12.65;100.00
47530;BME280;33272;51.922;7.730;2023-05-02T09:41:07;145650.88;;;12.70;100.00
47530;BME280;33272;51.922;7.730;2023-05-02T09:43:34;145669.91;;;12.78;100.00
47530;BME280;33272;51.922;7.730;2023-05-02T09:46:05;145704.16;;;12.92;100.00
47530;BME280;33272;51.922;7.730;2023-05-02T09:48:52;145640.69;;;12.66;96.64
47530;BME280;33272;51.922;7.730;2023-05-02T09:51:21;145681.31;;;12.83;100.00
47530;BME280;33272;51.922;7.730;2023-05-02T09:53:49;145692.75;;;12.87;100.00
47530;BME280;33272;51.922;7.730;2023-05-02T09:56:17;145727.03;;;13.01;99.58
47530;BME280;33272;51.922;7.730;2023-05-02T09:58:44;145809.66;;;13.34;99.41
47530;BME280;33272;51.922;7.730;2023-05-02T10:01:16;145789.31;;;13.26;93.84
47530;BME280;33272;51.922;7.730;2023-05-02T10:03:46;145810.91;;;13.35;94.82
47530;BME280;33272;51.922;7.730;2023-05-02T10:06:14;145869.34;;;13.58;96.26
47530;BME280;33272;51.922;7.730;2023-05-02T10:08:42;145922.72;;;13.80;95.17
47530;BME280;33272;51.922;7.730;2023-05-02T10:11:12;145954.47;;;13.93;95.11
47530;BME280;33272;51.922;7.730;2023-05-02T10:13:40;145964.69;;;13.97;92.69
47530;BME280;33272;51.922;7.730;2023-05-02T10:16:11;145981.19;;;14.03;92.92
47530;BME280;33272;51.922;7.730;2023-05-02T10:18:45;146037.13;;;14.26;92.45
47530;BME280;33272;51.922;7.730;2023-05-02T10:21:16;146052.38;;;14.32;89.36
47530;BME280;33272;51.922;7.730;2023-05-02T10:23:46;146099.47;;;14.51;92.23
47530;BME280;33272;51.922;7.730;2023-05-02T10:26:15;146128.69;;;14.63;91.63
47530;BME280;33272;51.922;7.730;2023-05-02T10:28:43;146124.91;;;14.61;89.66
47530;BME280;33272;51.922;7.730;2023-05-02T10:31:11;146094.31;;;14.49;89.39
47530;BME280;33272;51.922;7.730;2023-05-02T10:33:40;146121.06;;;14.59;89.32
47530;BME280;33272;51.922;7.730;2023-05-02T10:36:10;146112.16;;;14.56;87.15
47530;BME280;33272;51.922;7.730;2023-05-02T10:38:38;146121.06;;;14.59;88.81
47530;BME280;33272;51.922;7.730;2023-05-02T10:41:09;146084.16;;;14.45;86.80
47530;BME280;33272;51.922;7.730;2023-05-02T10:43:38;146091.78;;;14.48;88.13
47530;BME280;33272;51.922;7.730;2023-05-02T10:46:30;146004.09;;;14.12;81.25
47530;BME280;33272;51.922;7.730;2023-05-02T10:49:03;146010.41;;;14.15;86.12
47530;BME280;33272;51.922;7.730;2023-05-02T10:51:32;146051.13;;;14.31;87.27
47530;BME280;33272;51.922;7.730;2023-05-02T10:54:19;146026.94;;;14.22;76.99
47530;BME280;33272;51.922;7.730;2023-05-02T10:57:06;146076.53;;;14.42;83.02
47530;BME280;33272;51.922;7.730;2023-05-02T10:59:35;146079.06;;;14.43;81.58
47530;BME280;33272;51.922;7.730;2023-05-02T11:02:03;146136.31;;;14.66;80.67
47530;BME280;33272;51.922;7.730;2023-05-02T11:05:01;146146.53;;;14.70;73.01
47530;BME280;33272;51.922;7.730;2023-05-02T11:07:30;146150.31;;;14.71;79.68
47530;BME280;33272;51.922;7.730;2023-05-02T11:10:25;146039.66;;;14.27;71.45
47530;BME280;33272;51.922;7.730;2023-05-02T11:12:57;146060.00;;;14.35;79.49
47530;BME280;33272;51.922;7.730;2023-05-02T11:15:54;146019.34;;;14.19;70.49
47530;BME280;33272;51.922;7.730;2023-05-02T11:18:21;146075.28;;;14.41;78.23
47530;BME280;33272;51.922;7.730;2023-05-02T11:20:50;146082.91;;;14.44;76.94
47530;BME280;33272;51.922;7.730;2023-05-02T11:23:22;146060.00;;;14.35;75.67
47530;BME280;33272;51.922;7.730;2023-05-02T11:25:55;146046.03;;;14.29;76.52
47530;BME280;33272;51.922;7.730;2023-05-02T11:28:42;146042.19;;;14.28;69.44
47530;BME280;33272;51.922;7.730;2023-05-02T11:32:00;146066.38;;;14.37;69.00
47530;BME280;33272;51.922;7.730;2023-05-02T11:34:31;146010.41;;;14.15;74.33
47530;BME280;33272;51.922;7.730;2023-05-02T11:37:12;145962.13;;;13.96;71.39
47530;BME280;33272;51.922;7.730;2023-05-02T11:39:39;145982.47;;;14.04;73.91
47530;BME280;33272;51.922;7.730;2023-05-02T11:42:06;146038.38;;;14.26;73.11
47530;BME280;33272;51.922;7.730;2023-05-02T11:44:33;145963.38;;;13.96;68.07
47530;BME280;33272;51.922;7.730;2023-05-02T11:47:01;146016.78;;;14.18;72.68
47530;BME280;33272;51.922;7.730;2023-05-02T11:49:28;146067.66;;;14.38;72.70
47530;BME280;33272;51.922;7.730;2023-05-02T11:51:58;146096.84;;;14.50;71.78
47530;BME280;33272;51.922;7.730;2023-05-02T11:54:26;146047.28;;;14.30;71.12
47530;BME280;33272;51.922;7.730;2023-05-02T11:56:53;146020.59;;;14.19;71.28
47530;BME280;33272;51.922;7.730;2023-05-02T11:59:20;146000.25;;;14.11;69.50
47530;BME280;33272;51.922;7.730;2023-05-02T12:01:48;145987.53;;;14.06;70.21
47530;BME280;33272;51.922;7.730;2023-05-02T12:04:15;146000.25;;;14.11;70.27
47530;BME280;33272;51.922;7.730;2023-05-02T12:06:55;146076.53;;;14.42;67.44
47530;BME280;33272;51.922;7.730;2023-05-02T12:09:23;146121.06;;;14.59;67.11
47530;BME280;33272;51.922;7.730;2023-05-02T12:11:52;146150.31;;;14.71;68.24
47530;BME280;33272;51.922;7.730;2023-05-02T12:14:26;146213.91;;;14.97;67.71
47530;BME280;33272;51.922;7.730;2023-05-02T12:16:54;146240.66;;;15.07;67.03
47530;BME280;33272;51.922;7.730;2023-05-02T12:19:21;146197.38;;;14.90;64.06
47530;BME280;33272;51.922;7.730;2023-05-02T12:21:49;146202.47;;;14.92;66.27
47530;BME280;33272;51.922;7.730;2023-05-02T12:24:16;146224.13;;;15.01;65.84
47530;BME280;33272;51.922;7.730;2023-05-02T12:26:43;146288.97;;;15.27;65.68
47530;BME280;33272;51.922;7.730;2023-05-02T12:29:11;146304.25;;;15.33;63.42
47530;BME280;33272;51.922;7.730;2023-05-02T12:31:38;146362.75;;;15.57;64.77
47530;BME280;33272;51.922;7.730;2023-05-02T12:34:06;146394.63;;;15.69;64.27
47530;BME280;33272;51.922;7.730;2023-05-02T12:36:34;146398.47;;;15.71;63.69
47530;BME280;33272;51.922;7.730;2023-05-02T12:39:02;146364.03;;;15.57;63.07
47530;BME280;33272;51.922;7.730;2023-05-02T12:41:33;146357.72;;;15.55;62.53
47530;BME280;33272;51.922;7.730;2023-05-02T12:44:01;146333.53;;;15.45;61.59
47530;BME280;33272;51.922;7.730;2023-05-02T12:46:29;146311.88;;;15.36;62.46
47530;BME280;33272;51.922;7.730;2023-05-02T12:49:04;146244.44;;;15.09;57.51
47530;BME280;33272;51.922;7.730;2023-05-02T12:51:33;146221.53;;;15.00;61.72
47530;BME280;33272;51.922;7.730;2023-05-02T12:54:00;146257.19;;;15.14;62.44
47530;BME280;33272;51.922;7.730;2023-05-02T12:56:27;146213.91;;;14.97;61.01